CheckWX is a tool to help pilots better visualize weather data.  It is not intended as a substitute for an official pre-flight weather briefing.

05:37:32 UTC

KDMN METAR
Deming Municipal Airport
Deming, New Mexico, USA
Current

45 mins ago

KDMN 240453Z AUTO 17006KT 10SM CLR M02/M06 A3026 RMK AO2 SLP249 T10171061
Observed
Feb-24 @ 04:53 UTC
Wind
  • 170° at 6 KTS
Visibility
10 SM
Flight Rules
VFR
Cloud Levels
  • Clear skies
Temperature
-2°C / 28°F
Dewpoint
-6°C / 21°F
Humidity
74%
Altimeter
30.26" Hg
Pressure
1024.9 hPa
Previous

2 hours ago

KDMN 240353Z AUTO 20005KT 10SM CLR 01/M06 A3024 RMK AO2 SLP236 T00111056
Observed
Feb-24 @ 03:53 UTC
Wind
  • 200° at 5 KTS
Visibility
10 SM
Flight Rules
VFR
Cloud Levels
  • Clear skies
Temperature
C / 34°F
Dewpoint
-6°C / 21°F
Humidity
60%
Altimeter
30.24" Hg
Pressure
1023.6 hPa
Previous

3 hours ago

KDMN 240253Z AUTO 18006KT 10SM CLR 03/M06 A3022 RMK AO2 SLP231 T00281056 53014
Observed
Feb-24 @ 02:53 UTC
Wind
  • 180° at 6 KTS
Visibility
10 SM
Flight Rules
VFR
Cloud Levels
  • Clear skies
Temperature
C / 37°F
Dewpoint
-6°C / 21°F
Humidity
52%
Altimeter
30.22" Hg
Pressure
1023.1 hPa